sensor_id;sensor_type;location;lat;lon;timestamp;P1;durP1;ratioP1;P2;durP2;ratioP2
15665;SDS011;20725;51.196;3.510;2024-03-02T00:00:13;3.50;;;2.23;;
15665;SDS011;20725;51.196;3.510;2024-03-02T00:02:42;3.77;;;2.40;;
15665;SDS011;20725;51.196;3.510;2024-03-02T00:05:10;2.10;;;1.83;;
15665;SDS011;20725;51.196;3.510;2024-03-02T00:07:38;2.37;;;2.10;;
15665;SDS011;20725;51.196;3.510;2024-03-02T00:10:07;2.23;;;1.93;;
15665;SDS011;20725;51.196;3.510;2024-03-02T00:12:35;3.37;;;2.33;;
15665;SDS011;20725;51.196;3.510;2024-03-02T00:15:04;2.53;;;2.27;;
15665;SDS011;20725;51.196;3.510;2024-03-02T00:17:32;5.23;;;2.60;;
15665;SDS011;20725;51.196;3.510;2024-03-02T00:20:00;2.70;;;1.90;;
15665;SDS011;20725;51.196;3.510;2024-03-02T00:22:30;5.33;;;2.80;;
15665;SDS011;20725;51.196;3.510;2024-03-02T00:24:57;5.53;;;2.70;;
15665;SDS011;20725;51.196;3.510;2024-03-02T00:27:25;3.37;;;2.27;;
15665;SDS011;20725;51.196;3.510;2024-03-02T00:29:52;2.67;;;2.40;;
15665;SDS011;20725;51.196;3.510;2024-03-02T00:32:19;5.70;;;2.47;;
15665;SDS011;20725;51.196;3.510;2024-03-02T00:34:47;2.43;;;2.23;;
15665;SDS011;20725;51.196;3.510;2024-03-02T00:37:15;4.80;;;2.83;;
15665;SDS011;20725;51.196;3.510;2024-03-02T00:39:43;5.60;;;3.47;;
15665;SDS011;20725;51.196;3.510;2024-03-02T00:42:10;2.93;;;2.20;;
15665;SDS011;20725;51.196;3.510;2024-03-02T00:44:38;5.70;;;2.77;;
15665;SDS011;20725;51.196;3.510;2024-03-02T00:47:05;2.23;;;2.13;;
15665;SDS011;20725;51.196;3.510;2024-03-02T00:49:34;2.67;;;2.47;;
15665;SDS011;20725;51.196;3.510;2024-03-02T00:52:01;2.57;;;2.37;;
15665;SDS011;20725;51.196;3.510;2024-03-02T00:54:30;2.60;;;2.33;;
15665;SDS011;20725;51.196;3.510;2024-03-02T00:56:57;5.27;;;2.70;;
15665;SDS011;20725;51.196;3.510;2024-03-02T00:59:24;2.87;;;2.27;;
15665;SDS011;20725;51.196;3.510;2024-03-02T01:01:51;4.43;;;3.00;;
15665;SDS011;20725;51.196;3.510;2024-03-02T01:04:19;2.43;;;2.23;;
15665;SDS011;20725;51.196;3.510;2024-03-02T01:06:46;3.50;;;2.60;;
15665;SDS011;20725;51.196;3.510;2024-03-02T01:09:13;2.30;;;2.20;;
15665;SDS011;20725;51.196;3.510;2024-03-02T01:11:43;2.20;;;2.10;;
15665;SDS011;20725;51.196;3.510;2024-03-02T01:14:10;3.37;;;2.40;;
15665;SDS011;20725;51.196;3.510;2024-03-02T01:16:37;2.23;;;2.03;;
15665;SDS011;20725;51.196;3.510;2024-03-02T01:19:05;2.70;;;2.13;;
15665;SDS011;20725;51.196;3.510;2024-03-02T01:21:32;2.67;;;2.40;;
15665;SDS011;20725;51.196;3.510;2024-03-02T01:23:59;1.70;;;1.70;;
15665;SDS011;20725;51.196;3.510;2024-03-02T01:26:27;2.13;;;2.03;;
15665;SDS011;20725;51.196;3.510;2024-03-02T01:28:55;2.70;;;2.50;;
15665;SDS011;20725;51.196;3.510;2024-03-02T01:31:22;2.77;;;2.27;;
15665;SDS011;20725;51.196;3.510;2024-03-02T01:33:50;4.27;;;2.43;;
15665;SDS011;20725;51.196;3.510;2024-03-02T01:36:17;3.83;;;2.10;;
15665;SDS011;20725;51.196;3.510;2024-03-02T01:38:44;2.20;;;2.10;;
15665;SDS011;20725;51.196;3.510;2024-03-02T01:41:11;3.60;;;2.60;;
15665;SDS011;20725;51.196;3.510;2024-03-02T01:43:39;2.43;;;2.23;;
15665;SDS011;20725;51.196;3.510;2024-03-02T01:46:07;2.23;;;1.93;;
15665;SDS011;20725;51.196;3.510;2024-03-02T01:48:35;3.33;;;2.50;;
15665;SDS011;20725;51.196;3.510;2024-03-02T01:51:02;3.23;;;2.30;;
15665;SDS011;20725;51.196;3.510;2024-03-02T01:53:31;1.93;;;1.83;;
15665;SDS011;20725;51.196;3.510;2024-03-02T01:55:58;2.80;;;1.93;;
15665;SDS011;20725;51.196;3.510;2024-03-02T01:58:26;3.07;;;2.10;;
15665;SDS011;20725;51.196;3.510;2024-03-02T02:00:53;3.93;;;2.40;;
15665;SDS011;20725;51.196;3.510;2024-03-02T02:03:22;4.20;;;2.50;;
15665;SDS011;20725;51.196;3.510;2024-03-02T02:05:49;1.97;;;1.90;;
15665;SDS011;20725;51.196;3.510;2024-03-02T02:08:16;2.90;;;2.70;;
15665;SDS011;20725;51.196;3.510;2024-03-02T02:10:44;4.07;;;3.00;;
15665;SDS011;20725;51.196;3.510;2024-03-02T02:13:11;2.17;;;1.97;;
15665;SDS011;20725;51.196;3.510;2024-03-02T02:15:38;4.20;;;2.87;;
15665;SDS011;20725;51.196;3.510;2024-03-02T02:18:06;2.20;;;2.10;;
15665;SDS011;20725;51.196;3.510;2024-03-02T02:20:34;2.43;;;2.23;;
15665;SDS011;20725;51.196;3.510;2024-03-02T02:23:03;2.33;;;2.23;;
15665;SDS011;20725;51.196;3.510;2024-03-02T02:25:33;2.83;;;2.60;;
15665;SDS011;20725;51.196;3.510;2024-03-02T02:28:00;2.20;;;2.10;;
15665;SDS011;20725;51.196;3.510;2024-03-02T02:30:28;2.80;;;2.60;;
15665;SDS011;20725;51.196;3.510;2024-03-02T02:32:55;2.40;;;2.30;;
15665;SDS011;20725;51.196;3.510;2024-03-02T02:35:23;4.40;;;3.23;;
15665;SDS011;20725;51.196;3.510;2024-03-02T02:37:50;5.37;;;2.90;;
15665;SDS011;20725;51.196;3.510;2024-03-02T02:40:20;3.77;;;3.47;;
15665;SDS011;20725;51.196;3.510;2024-03-02T02:42:47;4.87;;;3.73;;
15665;SDS011;20725;51.196;3.510;2024-03-02T02:45:14;4.00;;;2.63;;
15665;SDS011;20725;51.196;3.510;2024-03-02T02:47:41;4.77;;;3.33;;
15665;SDS011;20725;51.196;3.510;2024-03-02T02:50:09;3.90;;;3.60;;
15665;SDS011;20725;51.196;3.510;2024-03-02T02:52:37;4.30;;;3.90;;
15665;SDS011;20725;51.196;3.510;2024-03-02T02:55:05;4.10;;;3.50;;
15665;SDS011;20725;51.196;3.510;2024-03-02T02:57:34;4.87;;;3.47;;
15665;SDS011;20725;51.196;3.510;2024-03-02T03:00:05;6.77;;;3.80;;
15665;SDS011;20725;51.196;3.510;2024-03-02T03:02:35;5.47;;;3.43;;
15665;SDS011;20725;51.196;3.510;2024-03-02T03:05:03;7.40;;;4.47;;
15665;SDS011;20725;51.196;3.510;2024-03-02T03:07:31;6.20;;;3.97;;
15665;SDS011;20725;51.196;3.510;2024-03-02T03:09:58;7.70;;;3.67;;
15665;SDS011;20725;51.196;3.510;2024-03-02T03:12:26;3.63;;;3.33;;
15665;SDS011;20725;51.196;3.510;2024-03-02T03:14:54;4.97;;;3.80;;
15665;SDS011;20725;51.196;3.510;2024-03-02T03:17:22;4.10;;;3.47;;
15665;SDS011;20725;51.196;3.510;2024-03-02T03:19:49;6.67;;;3.83;;
15665;SDS011;20725;51.196;3.510;2024-03-02T03:22:17;4.80;;;3.43;;
15665;SDS011;20725;51.196;3.510;2024-03-02T03:24:44;5.40;;;3.43;;
15665;SDS011;20725;51.196;3.510;2024-03-02T03:27:11;4.77;;;3.57;;
15665;SDS011;20725;51.196;3.510;2024-03-02T03:29:38;4.40;;;3.97;;
15665;SDS011;20725;51.196;3.510;2024-03-02T03:32:07;5.70;;;3.80;;
15665;SDS011;20725;51.196;3.510;2024-03-02T03:34:34;4.17;;;3.87;;
15665;SDS011;20725;51.196;3.510;2024-03-02T03:37:02;7.63;;;3.47;;
15665;SDS011;20725;51.196;3.510;2024-03-02T03:39:29;3.27;;;3.07;;
15665;SDS011;20725;51.196;3.510;2024-03-02T03:41:57;3.40;;;3.20;;
15665;SDS011;20725;51.196;3.510;2024-03-02T03:44:24;6.70;;;3.23;;
15665;SDS011;20725;51.196;3.510;2024-03-02T03:46:51;4.43;;;2.77;;
15665;SDS011;20725;51.196;3.510;2024-03-02T03:49:20;5.00;;;3.63;;
15665;SDS011;20725;51.196;3.510;2024-03-02T03:51:47;6.60;;;3.30;;
15665;SDS011;20725;51.196;3.510;2024-03-02T03:54:15;3.87;;;3.57;;
15665;SDS011;20725;51.196;3.510;2024-03-02T03:56:42;4.60;;;4.20;;
15665;SDS011;20725;51.196;3.510;2024-03-02T03:59:09;8.73;;;4.17;;
15665;SDS011;20725;51.196;3.510;2024-03-02T04:01:37;4.43;;;3.20;;
15665;SDS011;20725;51.196;3.510;2024-03-02T04:04:04;8.33;;;3.60;;
15665;SDS011;20725;51.196;3.510;2024-03-02T04:06:34;3.83;;;3.27;;
15665;SDS011;20725;51.196;3.510;2024-03-02T04:09:01;10.10;;;4.07;;
15665;SDS011;20725;51.196;3.510;2024-03-02T04:11:29;8.33;;;3.50;;
15665;SDS011;20725;51.196;3.510;2024-03-02T04:13:57;5.10;;;3.47;;
15665;SDS011;20725;51.196;3.510;2024-03-02T04:16:24;4.43;;;2.97;;
15665;SDS011;20725;51.196;3.510;2024-03-02T04:18:51;4.67;;;3.40;;
15665;SDS011;20725;51.196;3.510;2024-03-02T04:21:18;7.50;;;3.90;;
15665;SDS011;20725;51.196;3.510;2024-03-02T04:23:47;8.20;;;3.50;;
15665;SDS011;20725;51.196;3.510;2024-03-02T04:26:14;3.57;;;2.93;;
15665;SDS011;20725;51.196;3.510;2024-03-02T04:28:47;3.13;;;2.83;;
15665;SDS011;20725;51.196;3.510;2024-03-02T04:31:14;3.60;;;3.00;;
15665;SDS011;20725;51.196;3.510;2024-03-02T04:33:41;3.40;;;3.10;;
15665;SDS011;20725;51.196;3.510;2024-03-02T04:36:09;3.80;;;3.03;;
15665;SDS011;20725;51.196;3.510;2024-03-02T04:38:36;5.80;;;2.70;;
15665;SDS011;20725;51.196;3.510;2024-03-02T04:41:05;5.73;;;3.00;;
15665;SDS011;20725;51.196;3.510;2024-03-02T04:43:32;5.10;;;3.17;;
15665;SDS011;20725;51.196;3.510;2024-03-02T04:45:59;4.77;;;3.20;;
15665;SDS011;20725;51.196;3.510;2024-03-02T04:48:26;6.47;;;3.80;;
15665;SDS011;20725;51.196;3.510;2024-03-02T04:50:54;5.20;;;3.17;;
15665;SDS011;20725;51.196;3.510;2024-03-02T04:53:21;5.07;;;2.97;;
15665;SDS011;20725;51.196;3.510;2024-03-02T04:55:48;8.37;;;3.67;;
15665;SDS011;20725;51.196;3.510;2024-03-02T04:58:45;4.10;;;3.23;;
15665;SDS011;20725;51.196;3.510;2024-03-02T05:01:13;5.43;;;2.37;;
15665;SDS011;20725;51.196;3.510;2024-03-02T05:03:41;4.60;;;2.30;;
15665;SDS011;20725;51.196;3.510;2024-03-02T05:06:08;9.73;;;3.17;;
15665;SDS011;20725;51.196;3.510;2024-03-02T05:08:36;11.10;;;3.50;;
15665;SDS011;20725;51.196;3.510;2024-03-02T05:11:03;6.37;;;3.50;;
15665;SDS011;20725;51.196;3.510;2024-03-02T05:13:45;4.20;;;3.20;;
15665;SDS011;20725;51.196;3.510;2024-03-02T05:16:13;9.37;;;3.70;;
15665;SDS011;20725;51.196;3.510;2024-03-02T05:18:40;5.57;;;3.43;;
15665;SDS011;20725;51.196;3.510;2024-03-02T05:21:07;6.37;;;3.10;;
15665;SDS011;20725;51.196;3.510;2024-03-02T05:23:34;4.20;;;3.13;;
15665;SDS011;20725;51.196;3.510;2024-03-02T05:26:02;6.07;;;3.50;;
15665;SDS011;20725;51.196;3.510;2024-03-02T05:28:29;3.97;;;2.80;;
15665;SDS011;20725;51.196;3.510;2024-03-02T05:30:58;9.87;;;3.60;;
15665;SDS011;20725;51.196;3.510;2024-03-02T05:33:25;6.57;;;3.20;;
15665;SDS011;20725;51.196;3.510;2024-03-02T05:35:53;6.70;;;3.43;;
15665;SDS011;20725;51.196;3.510;2024-03-02T05:38:20;4.53;;;2.80;;
15665;SDS011;20725;51.196;3.510;2024-03-02T05:40:48;4.30;;;3.07;;
15665;SDS011;20725;51.196;3.510;2024-03-02T05:43:15;8.80;;;3.30;;
15665;SDS011;20725;51.196;3.510;2024-03-02T05:45:43;5.10;;;3.10;;
15665;SDS011;20725;51.196;3.510;2024-03-02T05:48:11;8.87;;;4.67;;
15665;SDS011;20725;51.196;3.510;2024-03-02T05:50:39;5.87;;;3.40;;
15665;SDS011;20725;51.196;3.510;2024-03-02T05:53:06;7.70;;;3.10;;
15665;SDS011;20725;51.196;3.510;2024-03-02T05:55:33;16.93;;;3.63;;
15665;SDS011;20725;51.196;3.510;2024-03-02T05:58:01;6.63;;;2.73;;
15665;SDS011;20725;51.196;3.510;2024-03-02T06:00:42;6.37;;;3.50;;
15665;SDS011;20725;51.196;3.510;2024-03-02T06:03:11;5.80;;;3.20;;
15665;SDS011;20725;51.196;3.510;2024-03-02T06:05:38;5.90;;;2.70;;
15665;SDS011;20725;51.196;3.510;2024-03-02T06:08:06;9.90;;;3.67;;
15665;SDS011;20725;51.196;3.510;2024-03-02T06:10:33;5.37;;;3.00;;
15665;SDS011;20725;51.196;3.510;2024-03-02T06:13:00;9.70;;;2.83;;
15665;SDS011;20725;51.196;3.510;2024-03-02T06:15:28;4.63;;;3.23;;
15665;SDS011;20725;51.196;3.510;2024-03-02T06:17:55;5.20;;;2.90;;
15665;SDS011;20725;51.196;3.510;2024-03-02T06:20:23;3.53;;;2.20;;
15665;SDS011;20725;51.196;3.510;2024-03-02T06:22:51;5.10;;;2.37;;
15665;SDS011;20725;51.196;3.510;2024-03-02T06:25:19;5.43;;;2.53;;
15665;SDS011;20725;51.196;3.510;2024-03-02T06:27:46;5.73;;;3.13;;
15665;SDS011;20725;51.196;3.510;2024-03-02T06:30:14;4.77;;;2.77;;
15665;SDS011;20725;51.196;3.510;2024-03-02T06:32:41;3.53;;;2.50;;
15665;SDS011;20725;51.196;3.510;2024-03-02T06:35:13;7.50;;;3.03;;
15665;SDS011;20725;51.196;3.510;2024-03-02T06:37:43;2.60;;;2.40;;
15665;SDS011;20725;51.196;3.510;2024-03-02T06:40:10;5.60;;;3.00;;
15665;SDS011;20725;51.196;3.510;2024-03-02T06:42:37;7.93;;;2.40;;
15665;SDS011;20725;51.196;3.510;2024-03-02T06:45:05;2.17;;;2.00;;
15665;SDS011;20725;51.196;3.510;2024-03-02T06:47:33;2.47;;;2.27;;
15665;SDS011;20725;51.196;3.510;2024-03-02T06:50:00;4.60;;;2.20;;
15665;SDS011;20725;51.196;3.510;2024-03-02T06:52:27;4.40;;;2.87;;
15665;SDS011;20725;51.196;3.510;2024-03-02T06:54:56;2.50;;;2.30;;
15665;SDS011;20725;51.196;3.510;2024-03-02T06:57:23;5.67;;;2.53;;
15665;SDS011;20725;51.196;3.510;2024-03-02T06:59:50;5.27;;;2.30;;
15665;SDS011;20725;51.196;3.510;2024-03-02T07:02:20;3.37;;;2.70;;
15665;SDS011;20725;51.196;3.510;2024-03-02T07:04:48;7.60;;;3.07;;
15665;SDS011;20725;51.196;3.510;2024-03-02T07:07:16;6.83;;;2.47;;
15665;SDS011;20725;51.196;3.510;2024-03-02T07:09:43;8.43;;;2.60;;
15665;SDS011;20725;51.196;3.510;2024-03-02T07:12:12;5.77;;;2.37;;
15665;SDS011;20725;51.196;3.510;2024-03-02T07:14:39;4.37;;;2.20;;
15665;SDS011;20725;51.196;3.510;2024-03-02T07:17:36;5.43;;;2.20;;
15665;SDS011;20725;51.196;3.510;2024-03-02T07:20:04;2.87;;;2.37;;
15665;SDS011;20725;51.196;3.510;2024-03-02T07:22:32;5.70;;;2.30;;
15665;SDS011;20725;51.196;3.510;2024-03-02T07:24:59;3.87;;;2.10;;
15665;SDS011;20725;51.196;3.510;2024-03-02T07:27:29;6.47;;;2.13;;
15665;SDS011;20725;51.196;3.510;2024-03-02T07:29:58;3.23;;;2.13;;
15665;SDS011;20725;51.196;3.510;2024-03-02T07:32:25;1.93;;;1.27;;
15665;SDS011;20725;51.196;3.510;2024-03-02T07:34:53;3.90;;;1.70;;
15665;SDS011;20725;51.196;3.510;2024-03-02T07:37:20;4.57;;;2.17;;
15665;SDS011;20725;51.196;3.510;2024-03-02T07:39:48;2.70;;;2.00;;
15665;SDS011;20725;51.196;3.510;2024-03-02T07:42:15;5.73;;;1.80;;
15665;SDS011;20725;51.196;3.510;2024-03-02T07:44:44;3.83;;;1.83;;
15665;SDS011;20725;51.196;3.510;2024-03-02T07:47:12;3.63;;;1.80;;
15665;SDS011;20725;51.196;3.510;2024-03-02T07:49:39;7.63;;;2.00;;
15665;SDS011;20725;51.196;3.510;2024-03-02T07:52:06;3.93;;;1.93;;
15665;SDS011;20725;51.196;3.510;2024-03-02T07:54:34;3.73;;;1.87;;
15665;SDS011;20725;51.196;3.510;2024-03-02T07:57:01;4.97;;;2.17;;
15665;SDS011;20725;51.196;3.510;2024-03-02T07:59:28;4.00;;;2.10;;
15665;SDS011;20725;51.196;3.510;2024-03-02T08:01:57;4.83;;;2.00;;
15665;SDS011;20725;51.196;3.510;2024-03-02T08:04:25;4.83;;;2.10;;
15665;SDS011;20725;51.196;3.510;2024-03-02T08:06:53;3.40;;;1.70;;
15665;SDS011;20725;51.196;3.510;2024-03-02T08:09:20;3.30;;;1.60;;
15665;SDS011;20725;51.196;3.510;2024-03-02T08:11:48;5.07;;;1.90;;
15665;SDS011;20725;51.196;3.510;2024-03-02T08:14:15;4.00;;;1.80;;
15665;SDS011;20725;51.196;3.510;2024-03-02T08:16:42;6.27;;;1.73;;
15665;SDS011;20725;51.196;3.510;2024-03-02T08:19:11;5.17;;;1.97;;
15665;SDS011;20725;51.196;3.510;2024-03-02T08:21:38;3.83;;;2.03;;
15665;SDS011;20725;51.196;3.510;2024-03-02T08:24:06;5.30;;;2.00;;
15665;SDS011;20725;51.196;3.510;2024-03-02T08:26:33;3.53;;;2.10;;
15665;SDS011;20725;51.196;3.510;2024-03-02T08:29:01;5.90;;;2.30;;
15665;SDS011;20725;51.196;3.510;2024-03-02T08:31:28;5.23;;;1.83;;
15665;SDS011;20725;51.196;3.510;2024-03-02T08:33:56;4.83;;;2.00;;
15665;SDS011;20725;51.196;3.510;2024-03-02T08:36:25;3.23;;;1.73;;
15665;SDS011;20725;51.196;3.510;2024-03-02T08:38:52;7.17;;;2.40;;
15665;SDS011;20725;51.196;3.510;2024-03-02T08:41:19;4.13;;;2.23;;
15665;SDS011;20725;51.196;3.510;2024-03-02T08:43:47;5.73;;;1.93;;
15665;SDS011;20725;51.196;3.510;2024-03-02T08:46:14;4.97;;;1.90;;
15665;SDS011;20725;51.196;3.510;2024-03-02T08:48:42;4.17;;;2.00;;
15665;SDS011;20725;51.196;3.510;2024-03-02T08:51:10;4.47;;;1.67;;
15665;SDS011;20725;51.196;3.510;2024-03-02T08:53:38;6.73;;;1.60;;
15665;SDS011;20725;51.196;3.510;2024-03-02T08:56:06;6.47;;;2.40;;
15665;SDS011;20725;51.196;3.510;2024-03-02T08:58:33;6.67;;;1.87;;
15665;SDS011;20725;51.196;3.510;2024-03-02T09:01:00;8.50;;;2.53;;
15665;SDS011;20725;51.196;3.510;2024-03-02T09:03:27;5.43;;;2.00;;
15665;SDS011;20725;51.196;3.510;2024-03-02T09:05:58;5.37;;;2.40;;
15665;SDS011;20725;51.196;3.510;2024-03-02T09:08:25;3.27;;;1.83;;
15665;SDS011;20725;51.196;3.510;2024-03-02T09:10:54;7.23;;;2.30;;
15665;SDS011;20725;51.196;3.510;2024-03-02T09:13:21;6.83;;;2.67;;
15665;SDS011;20725;51.196;3.510;2024-03-02T09:15:48;5.43;;;2.53;;
15665;SDS011;20725;51.196;3.510;2024-03-02T09:18:16;3.47;;;2.20;;
15665;SDS011;20725;51.196;3.510;2024-03-02T09:20:44;6.50;;;2.73;;
15665;SDS011;20725;51.196;3.510;2024-03-02T09:23:12;9.57;;;2.73;;
15665;SDS011;20725;51.196;3.510;2024-03-02T09:25:39;4.20;;;2.60;;
15665;SDS011;20725;51.196;3.510;2024-03-02T09:28:08;5.60;;;2.27;;
15665;SDS011;20725;51.196;3.510;2024-03-02T09:30:35;9.10;;;2.70;;
15665;SDS011;20725;51.196;3.510;2024-03-02T09:33:03;7.97;;;2.73;;
15665;SDS011;20725;51.196;3.510;2024-03-02T09:35:30;7.50;;;2.50;;
15665;SDS011;20725;51.196;3.510;2024-03-02T09:37:58;4.43;;;2.97;;
15665;SDS011;20725;51.196;3.510;2024-03-02T09:40:25;10.03;;;2.83;;
15665;SDS011;20725;51.196;3.510;2024-03-02T09:42:53;8.43;;;2.60;;
15665;SDS011;20725;51.196;3.510;2024-03-02T09:45:23;6.37;;;2.50;;
15665;SDS011;20725;51.196;3.510;2024-03-02T09:47:51;3.00;;;1.93;;
15665;SDS011;20725;51.196;3.510;2024-03-02T09:50:19;5.37;;;1.80;;
15665;SDS011;20725;51.196;3.510;2024-03-02T09:52:47;3.10;;;2.03;;
15665;SDS011;20725;51.196;3.510;2024-03-02T09:55:15;6.37;;;2.27;;
15665;SDS011;20725;51.196;3.510;2024-03-02T09:57:44;3.63;;;1.83;;
15665;SDS011;20725;51.196;3.510;2024-03-02T10:00:14;4.97;;;2.50;;
15665;SDS011;20725;51.196;3.510;2024-03-02T10:02:42;7.33;;;2.60;;
15665;SDS011;20725;51.196;3.510;2024-03-02T10:05:11;3.37;;;2.03;;
15665;SDS011;20725;51.196;3.510;2024-03-02T10:07:38;6.57;;;2.87;;
15665;SDS011;20725;51.196;3.510;2024-03-02T10:10:12;6.23;;;2.17;;
15665;SDS011;20725;51.196;3.510;2024-03-02T10:12:40;5.37;;;2.30;;
15665;SDS011;20725;51.196;3.510;2024-03-02T10:15:07;8.73;;;2.50;;
15665;SDS011;20725;51.196;3.510;2024-03-02T10:17:34;4.63;;;1.63;;
15665;SDS011;20725;51.196;3.510;2024-03-02T10:22:45;8.03;;;1.83;;
15665;SDS011;20725;51.196;3.510;2024-03-02T10:25:17;4.17;;;1.80;;
15665;SDS011;20725;51.196;3.510;2024-03-02T10:27:56;3.70;;;1.60;;
15665;SDS011;20725;51.196;3.510;2024-03-02T10:30:24;5.27;;;1.80;;
15665;SDS011;20725;51.196;3.510;2024-03-02T10:32:52;6.83;;;2.53;;
15665;SDS011;20725;51.196;3.510;2024-03-02T10:35:20;6.53;;;2.70;;
15665;SDS011;20725;51.196;3.510;2024-03-02T10:37:49;5.03;;;2.30;;
15665;SDS011;20725;51.196;3.510;2024-03-02T10:40:17;5.57;;;2.40;;
15665;SDS011;20725;51.196;3.510;2024-03-02T10:42:45;5.27;;;1.90;;
15665;SDS011;20725;51.196;3.510;2024-03-02T10:45:12;9.00;;;2.80;;
15665;SDS011;20725;51.196;3.510;2024-03-02T10:47:41;11.33;;;3.30;;
15665;SDS011;20725;51.196;3.510;2024-03-02T10:50:09;5.83;;;2.50;;
15665;SDS011;20725;51.196;3.510;2024-03-02T10:52:37;7.23;;;2.50;;
15665;SDS011;20725;51.196;3.510;2024-03-02T10:55:07;8.87;;;2.27;;
15665;SDS011;20725;51.196;3.510;2024-03-02T10:57:37;11.57;;;2.93;;
15665;SDS011;20725;51.196;3.510;2024-03-02T11:00:08;2.93;;;1.97;;
15665;SDS011;20725;51.196;3.510;2024-03-02T11:02:40;9.30;;;2.33;;
15665;SDS011;20725;51.196;3.510;2024-03-02T11:05:08;5.53;;;2.40;;
15665;SDS011;20725;51.196;3.510;2024-03-02T11:07:37;6.13;;;2.90;;
15665;SDS011;20725;51.196;3.510;2024-03-02T11:10:07;5.63;;;2.20;;
15665;SDS011;20725;51.196;3.510;2024-03-02T11:12:36;7.03;;;2.03;;
15665;SDS011;20725;51.196;3.510;2024-03-02T11:15:03;6.97;;;2.73;;
15665;SDS011;20725;51.196;3.510;2024-03-02T11:17:32;5.23;;;2.60;;
15665;SDS011;20725;51.196;3.510;2024-03-02T11:19:59;3.60;;;1.87;;
15665;SDS011;20725;51.196;3.510;2024-03-02T11:22:26;9.40;;;2.50;;
15665;SDS011;20725;51.196;3.510;2024-03-02T11:24:54;3.33;;;1.70;;
15665;SDS011;20725;51.196;3.510;2024-03-02T11:30:06;4.57;;;2.40;;
15665;SDS011;20725;51.196;3.510;2024-03-02T11:32:34;7.63;;;2.13;;
15665;SDS011;20725;51.196;3.510;2024-03-02T11:35:01;3.83;;;2.20;;
15665;SDS011;20725;51.196;3.510;2024-03-02T11:37:29;6.80;;;2.10;;
15665;SDS011;20725;51.196;3.510;2024-03-02T11:39:56;5.00;;;2.00;;
15665;SDS011;20725;51.196;3.510;2024-03-02T11:42:24;4.53;;;2.33;;
15665;SDS011;20725;51.196;3.510;2024-03-02T11:44:51;4.53;;;1.83;;
15665;SDS011;20725;51.196;3.510;2024-03-02T11:47:19;7.63;;;2.33;;
15665;SDS011;20725;51.196;3.510;2024-03-02T11:49:48;6.37;;;2.33;;
15665;SDS011;20725;51.196;3.510;2024-03-02T11:52:16;4.17;;;1.97;;
15665;SDS011;20725;51.196;3.510;2024-03-02T11:54:45;5.73;;;2.10;;
15665;SDS011;20725;51.196;3.510;2024-03-02T11:57:14;3.47;;;1.90;;
15665;SDS011;20725;51.196;3.510;2024-03-02T11:59:41;8.10;;;2.17;;
15665;SDS011;20725;51.196;3.510;2024-03-02T12:02:14;8.70;;;1.90;;
15665;SDS011;20725;51.196;3.510;2024-03-02T12:04:43;5.17;;;1.93;;
15665;SDS011;20725;51.196;3.510;2024-03-02T12:07:12;4.70;;;2.17;;
15665;SDS011;20725;51.196;3.510;2024-03-02T12:09:39;8.70;;;2.27;;
15665;SDS011;20725;51.196;3.510;2024-03-02T12:12:07;5.80;;;2.67;;
15665;SDS011;20725;51.196;3.510;2024-03-02T12:14:36;5.27;;;2.27;;
15665;SDS011;20725;51.196;3.510;2024-03-02T12:17:03;7.77;;;2.67;;
15665;SDS011;20725;51.196;3.510;2024-03-02T12:19:31;5.60;;;2.20;;
15665;SDS011;20725;51.196;3.510;2024-03-02T12:22:00;4.23;;;2.07;;
15665;SDS011;20725;51.196;3.510;2024-03-02T12:24:28;7.10;;;2.70;;
15665;SDS011;20725;51.196;3.510;2024-03-02T12:26:55;6.17;;;2.30;;
15665;SDS011;20725;51.196;3.510;2024-03-02T12:29:23;8.50;;;3.10;;
15665;SDS011;20725;51.196;3.510;2024-03-02T12:31:51;3.37;;;1.93;;
15665;SDS011;20725;51.196;3.510;2024-03-02T12:34:18;7.23;;;2.30;;
15665;SDS011;20725;51.196;3.510;2024-03-02T12:36:46;4.80;;;1.87;;
15665;SDS011;20725;51.196;3.510;2024-03-02T12:39:16;7.37;;;2.20;;
15665;SDS011;20725;51.196;3.510;2024-03-02T12:41:45;8.00;;;2.77;;
15665;SDS011;20725;51.196;3.510;2024-03-02T12:44:15;6.10;;;2.87;;
15665;SDS011;20725;51.196;3.510;2024-03-02T12:46:43;4.83;;;2.03;;
15665;SDS011;20725;51.196;3.510;2024-03-02T12:49:11;8.37;;;2.47;;
15665;SDS011;20725;51.196;3.510;2024-03-02T12:51:39;5.73;;;2.20;;
15665;SDS011;20725;51.196;3.510;2024-03-02T12:54:06;8.37;;;2.63;;
15665;SDS011;20725;51.196;3.510;2024-03-02T12:56:35;6.90;;;2.20;;
15665;SDS011;20725;51.196;3.510;2024-03-02T12:59:02;6.10;;;2.57;;
15665;SDS011;20725;51.196;3.510;2024-03-02T13:01:30;4.10;;;2.20;;
15665;SDS011;20725;51.196;3.510;2024-03-02T13:03:58;5.80;;;2.57;;
15665;SDS011;20725;51.196;3.510;2024-03-02T13:06:25;9.67;;;2.80;;
15665;SDS011;20725;51.196;3.510;2024-03-02T13:08:54;6.83;;;2.10;;
15665;SDS011;20725;51.196;3.510;2024-03-02T13:11:21;11.77;;;2.97;;
15665;SDS011;20725;51.196;3.510;2024-03-02T13:13:51;8.13;;;2.60;;
15665;SDS011;20725;51.196;3.510;2024-03-02T13:16:18;11.20;;;3.10;;
15665;SDS011;20725;51.196;3.510;2024-03-02T13:18:46;9.27;;;2.67;;
15665;SDS011;20725;51.196;3.510;2024-03-02T13:21:13;6.27;;;2.80;;
15665;SDS011;20725;51.196;3.510;2024-03-02T13:23:40;7.83;;;2.43;;
15665;SDS011;20725;51.196;3.510;2024-03-02T13:26:08;12.43;;;2.63;;
15665;SDS011;20725;51.196;3.510;2024-03-02T13:28:37;9.50;;;3.40;;
15665;SDS011;20725;51.196;3.510;2024-03-02T13:31:06;7.37;;;3.10;;
15665;SDS011;20725;51.196;3.510;2024-03-02T13:33:33;6.40;;;2.77;;
15665;SDS011;20725;51.196;3.510;2024-03-02T13:36:00;2.50;;;2.30;;
15665;SDS011;20725;51.196;3.510;2024-03-02T13:38:28;3.90;;;2.13;;
15665;SDS011;20725;51.196;3.510;2024-03-02T13:40:55;6.63;;;2.53;;
15665;SDS011;20725;51.196;3.510;2024-03-02T13:43:22;1.70;;;1.60;;
15665;SDS011;20725;51.196;3.510;2024-03-02T13:45:50;4.40;;;1.87;;
15665;SDS011;20725;51.196;3.510;2024-03-02T13:48:20;4.73;;;1.90;;
15665;SDS011;20725;51.196;3.510;2024-03-02T13:50:47;4.27;;;2.20;;
15665;SDS011;20725;51.196;3.510;2024-03-02T13:53:14;5.27;;;2.00;;
15665;SDS011;20725;51.196;3.510;2024-03-02T13:55:41;5.07;;;1.67;;
15665;SDS011;20725;51.196;3.510;2024-03-02T13:58:09;3.63;;;2.50;;
15665;SDS011;20725;51.196;3.510;2024-03-02T14:00:36;3.07;;;2.20;;
15665;SDS011;20725;51.196;3.510;2024-03-02T14:03:04;4.30;;;2.40;;
15665;SDS011;20725;51.196;3.510;2024-03-02T14:05:33;5.23;;;1.80;;
15665;SDS011;20725;51.196;3.510;2024-03-02T14:08:01;7.10;;;2.07;;
15665;SDS011;20725;51.196;3.510;2024-03-02T14:10:29;4.87;;;2.33;;
15665;SDS011;20725;51.196;3.510;2024-03-02T14:12:56;5.73;;;2.57;;
15665;SDS011;20725;51.196;3.510;2024-03-02T14:15:23;5.20;;;2.70;;
15665;SDS011;20725;51.196;3.510;2024-03-02T14:17:50;4.33;;;2.17;;
15665;SDS011;20725;51.196;3.510;2024-03-02T14:20:18;5.10;;;2.53;;
15665;SDS011;20725;51.196;3.510;2024-03-02T14:22:48;6.07;;;2.60;;
15665;SDS011;20725;51.196;3.510;2024-03-02T14:25:16;5.47;;;2.57;;
15665;SDS011;20725;51.196;3.510;2024-03-02T14:27:44;11.13;;;3.07;;
15665;SDS011;20725;51.196;3.510;2024-03-02T14:30:11;4.73;;;2.47;;
15665;SDS011;20725;51.196;3.510;2024-03-02T14:32:39;8.63;;;2.73;;
15665;SDS011;20725;51.196;3.510;2024-03-02T14:35:06;7.37;;;2.87;;
15665;SDS011;20725;51.196;3.510;2024-03-02T14:37:36;9.10;;;3.27;;
15665;SDS011;20725;51.196;3.510;2024-03-02T14:40:06;6.50;;;2.70;;
15665;SDS011;20725;51.196;3.510;2024-03-02T14:42:34;8.50;;;3.70;;
15665;SDS011;20725;51.196;3.510;2024-03-02T14:45:02;9.30;;;4.17;;
15665;SDS011;20725;51.196;3.510;2024-03-02T14:47:31;9.57;;;3.27;;
15665;SDS011;20725;51.196;3.510;2024-03-02T14:49:58;6.83;;;2.90;;
15665;SDS011;20725;51.196;3.510;2024-03-02T14:52:26;7.77;;;3.83;;
15665;SDS011;20725;51.196;3.510;2024-03-02T14:54:54;11.43;;;3.80;;
15665;SDS011;20725;51.196;3.510;2024-03-02T14:57:22;12.97;;;4.33;;